Time;durP1;ratioP1;P1;durP2;ratioP2;P2;SDS_P1;SDS_P2;PMS_P1;PMS_P2;Temp;Humidity;BMP_temperature;BMP_pressure;BME280_temperature;BME280_humidity;BME280_pressure;Samples;Min_cycle;Max_cycle;Signal;HPM_P1;HPM_P2
2023/01/10 00:00:53;;;;;;;17.35;8.70;;;;;;;4.61;100.00;99995.09;4995689;28;20034;-73
2023/01/10 00:03:19;;;;;;;19.88;9.02;;;;;;;4.59;100.00;99996.31;4998199;28;20035;-72
2023/01/10 00:05:45;;;;;;;22.63;8.70;;;;;;;4.60;100.00;100006.94;4998363;28;20049;-72
2023/01/10 00:08:15;;;;;;;18.00;8.70;;;;;;;4.59;100.00;100013.34;4999280;28;20073;-73
2023/01/10 00:10:41;;;;;;;20.35;10.25;;;;;;;4.55;100.00;100025.59;5001169;28;20046;-72
2023/01/10 00:13:22;;;;;;;19.30;9.88;;;;;;;4.52;100.00;100028.69;5000517;28;20042;-72
2023/01/10 00:15:50;;;;;;;22.67;10.13;;;;;;;4.49;100.00;100028.22;4995352;28;20031;-73
2023/01/10 00:18:17;;;;;;;21.80;10.68;;;;;;;4.48;100.00;100032.78;5009390;28;20030;-72
2023/01/10 00:20:44;;;;;;;22.40;10.95;;;;;;;4.47;100.00;100042.75;4995550;28;20038;-72
2023/01/10 00:23:11;;;;;;;23.25;10.73;;;;;;;4.49;100.00;100039.00;4994885;28;20049;-72
2023/01/10 00:25:37;;;;;;;24.77;11.27;;;;;;;4.42;100.00;100037.09;4998080;28;20501;-74
2023/01/10 00:28:18;;;;;;;22.70;10.95;;;;;;;4.40;100.00;100046.44;4994818;28;20382;-73
2023/01/10 00:30:48;;;;;;;20.98;11.18;;;;;;;4.32;100.00;100050.06;4995409;28;20042;-73
2023/01/10 00:33:18;;;;;;;20.73;11.38;;;;;;;4.30;100.00;100054.84;4995209;28;20037;-73
2023/01/10 00:35:44;;;;;;;19.88;10.63;;;;;;;4.27;100.00;100058.75;5007426;28;20035;-73
2023/01/10 00:38:10;;;;;;;21.25;11.93;;;;;;;4.30;100.00;100052.94;4994786;28;20038;-73
2023/01/10 00:40:37;;;;;;;20.23;10.88;;;;;;;4.35;100.00;100060.50;4995903;28;20096;-72
2023/01/10 00:45:47;;;;;;;19.55;10.68;;;;;;;4.38;100.00;100070.91;4995002;28;20041;-74
2023/01/10 00:48:15;;;;;;;20.85;11.65;;;;;;;4.40;100.00;100073.44;4998816;28;20068;-73
2023/01/10 00:50:42;;;;;;;20.50;11.45;;;;;;;4.41;100.00;100080.50;5005416;28;20128;-73
2023/01/10 00:53:08;;;;;;;21.95;11.25;;;;;;;4.47;100.00;100083.25;5007649;28;20042;-73
2023/01/10 00:55:35;;;;;;;21.00;11.25;;;;;;;4.47;100.00;100085.97;5008603;28;20133;-73
2023/01/10 00:58:02;;;;;;;22.50;11.48;;;;;;;4.46;100.00;100105.91;5005663;28;20100;-73
2023/01/10 01:00:28;;;;;;;19.80;10.50;;;;;;;4.51;100.00;100112.59;5010181;28;20053;-72
2023/01/10 01:02:55;;;;;;;20.95;11.27;;;;;;;4.52;100.00;100112.41;5005274;28;20038;-74
2023/01/10 01:05:21;;;;;;;23.63;11.80;;;;;;;4.51;100.00;100124.25;5010561;28;20072;-73
2023/01/10 01:07:49;;;;;;;19.10;10.90;;;;;;;4.49;100.00;100123.63;5005779;28;20527;-74
2023/01/10 01:10:27;;;;;;;21.73;10.93;;;;;;;4.53;100.00;100134.88;5011158;28;20042;-73
2023/01/10 01:12:56;;;;;;;18.98;10.85;;;;;;;4.51;100.00;100136.91;4999940;28;20030;-73
2023/01/10 01:15:22;;;;;;;22.13;10.77;;;;;;;4.47;100.00;100139.19;4998003;28;20042;-73
2023/01/10 01:17:48;;;;;;;21.25;10.73;;;;;;;4.45;100.00;100144.75;5004658;28;20037;-74
2023/01/10 01:20:15;;;;;;;20.55;10.75;;;;;;;4.39;100.00;100159.03;5002123;28;20038;-73
2023/01/10 01:22:41;;;;;;;20.20;10.95;;;;;;;4.36;100.00;100148.59;5004115;28;20034;-73
2023/01/10 01:25:08;;;;;;;19.95;10.60;;;;;;;4.35;100.00;100162.28;5010157;28;20033;-74
2023/01/10 01:27:34;;;;;;;21.38;10.57;;;;;;;4.35;100.00;100165.81;5019955;28;20057;-73
2023/01/10 01:30:00;;;;;;;20.17;10.30;;;;;;;4.32;100.00;100177.84;5016371;28;20169;-73
2023/01/10 01:32:26;;;;;;;20.30;9.95;;;;;;;4.33;100.00;100178.69;5015645;28;20034;-73
2023/01/10 01:34:53;;;;;;;18.35;9.73;;;;;;;4.36;100.00;100182.84;5005278;28;20038;-73
2023/01/10 01:37:19;;;;;;;19.75;9.95;;;;;;;4.29;100.00;100177.38;5002684;28;20049;-72
2023/01/10 01:39:45;;;;;;;18.17;10.00;;;;;;;4.39;100.00;100198.72;4994728;28;20034;-74
2023/01/10 01:42:25;;;;;;;20.17;9.95;;;;;;;4.37;100.00;100193.47;5010313;28;20037;-73
2023/01/10 01:45:13;;;;;;;18.92;8.73;;;;;;;4.38;100.00;100210.53;5005973;28;20054;-73
2023/01/10 01:47:57;;;;;;;16.85;8.75;;;;;;;4.42;100.00;100217.25;5000208;28;20188;-73
2023/01/10 01:50:31;;;;;;;19.50;8.73;;;;;;;4.44;100.00;100218.72;5004423;28;20478;-73
2023/01/10 01:53:00;;;;;;;18.30;8.88;;;;;;;4.50;100.00;100229.78;5009999;28;20038;-73
2023/01/10 01:55:28;;;;;;;15.82;8.32;;;;;;;4.47;100.00;100226.44;5010191;28;20378;-74
2023/01/10 01:57:57;;;;;;;15.73;8.30;;;;;;;4.54;100.00;100239.22;5025118;28;20044;-73
2023/01/10 02:00:24;;;;;;;16.70;7.97;;;;;;;4.56;100.00;100240.69;5004515;28;20413;-73
2023/01/10 02:02:55;;;;;;;15.88;8.52;;;;;;;4.58;100.00;100240.53;5010250;28;20095;-73
2023/01/10 02:05:23;;;;;;;18.27;8.32;;;;;;;4.61;100.00;100242.84;5001388;28;20038;-73
2023/01/10 02:07:54;;;;;;;17.27;8.63;;;;;;;4.61;100.00;100245.56;4992397;28;20150;-73
2023/01/10 02:11:08;;;;;;;16.42;8.40;;;;;;;4.58;100.00;100248.63;4996195;28;20401;-73
2023/01/10 02:13:40;;;;;;;17.13;9.07;;;;;;;4.57;100.00;100255.88;4969218;28;20074;-73
2023/01/10 02:16:07;;;;;;;15.32;8.18;;;;;;;4.55;100.00;100260.63;4995165;28;20054;-73
2023/01/10 02:18:34;;;;;;;15.23;7.95;;;;;;;4.54;100.00;100269.78;5003663;28;20045;-73
2023/01/10 02:21:07;;;;;;;15.43;7.75;;;;;;;4.57;100.00;100274.78;5003295;28;20034;-73
2023/01/10 02:24:15;;;;;;;16.70;8.10;;;;;;;4.61;100.00;100291.50;4992858;28;20034;-73
2023/01/10 02:27:02;;;;;;;12.25;7.88;;;;;;;4.65;100.00;100287.38;5008983;28;20390;-74
2023/01/10 02:29:55;;;;;;;15.32;8.77;;;;;;;4.67;100.00;100296.13;4999041;28;20062;-73
2023/01/10 02:32:42;;;;;;;17.02;7.30;;;;;;;4.71;100.00;100285.81;4993263;28;20482;-72
2023/01/10 02:35:38;;;;;;;14.88;7.47;;;;;;;4.69;100.00;100304.91;4993432;28;20057;-73
2023/01/10 02:38:20;;;;;;;18.52;8.45;;;;;;;4.62;100.00;100293.16;4991949;28;20129;-73
2023/01/10 02:41:04;;;;;;;17.05;7.85;;;;;;;4.52;100.00;100298.84;5008654;28;20057;-74
2023/01/10 02:43:48;;;;;;;16.45;8.10;;;;;;;4.42;100.00;100299.09;5006851;28;20049;-73
2023/01/10 02:46:23;;;;;;;17.08;7.20;;;;;;;4.37;100.00;100306.06;4993175;28;20474;-73
2023/01/10 02:48:50;;;;;;;15.10;6.53;;;;;;;4.32;100.00;100298.53;4993049;28;20054;-73
2023/01/10 02:51:20;;;;;;;13.03;6.43;;;;;;;4.28;100.00;100302.66;4993066;28;20093;-72
2023/01/10 02:53:57;;;;;;;18.58;7.18;;;;;;;4.23;100.00;100310.44;4998773;28;20109;-74
2023/01/10 02:56:26;;;;;;;13.07;6.88;;;;;;;4.21;100.00;100307.06;4997408;28;20373;-73
2023/01/10 02:59:13;;;;;;;16.98;8.02;;;;;;;4.20;100.00;100317.06;4993125;28;20351;-74
2023/01/10 03:02:02;;;;;;;21.13;7.85;;;;;;;4.20;100.00;100321.59;4994719;28;20522;-75
2023/01/10 03:04:55;;;;;;;17.80;7.30;;;;;;;4.23;100.00;100324.78;4993946;28;20362;-74
2023/01/10 03:07:39;;;;;;;14.60;7.75;;;;;;;4.23;100.00;100321.22;5006684;28;20292;-74
2023/01/10 03:10:36;;;;;;;16.42;8.05;;;;;;;4.24;100.00;100336.41;5000712;28;20123;-74
2023/01/10 03:13:25;;;;;;;16.13;7.35;;;;;;;4.27;100.00;100328.78;5014613;28;20053;-74
2023/01/10 03:15:54;;;;;;;19.10;7.78;;;;;;;4.26;100.00;100331.69;4996826;28;20081;-74
2023/01/10 03:18:29;;;;;;;17.52;7.57;;;;;;;4.26;100.00;100334.41;4996394;28;20121;-73
2023/01/10 03:20:58;;;;;;;14.73;6.90;;;;;;;4.27;100.00;100344.19;4996428;28;20614;-74
2023/01/10 03:23:25;;;;;;;19.73;7.20;;;;;;;4.32;100.00;100348.00;4996659;28;20038;-73
2023/01/10 03:25:55;;;;;;;16.85;7.32;;;;;;;4.33;100.00;100346.13;4996717;28;20105;-73
2023/01/10 03:28:37;;;;;;;14.40;6.30;;;;;;;4.34;100.00;100355.91;5009370;28;20037;-73
2023/01/10 03:31:09;;;;;;;12.75;5.57;;;;;;;4.36;100.00;100370.06;4996374;28;20044;-74
2023/01/10 03:33:36;;;;;;;17.98;5.78;;;;;;;4.38;100.00;100376.13;4995987;28;20045;-74
2023/01/10 03:36:21;;;;;;;12.27;5.28;;;;;;;4.39;100.00;100379.69;4996374;28;20039;-74
2023/01/10 03:38:56;;;;;;;9.77;4.75;;;;;;;4.27;100.00;100380.09;5014519;28;20034;-74
2023/01/10 03:41:52;;;;;;;12.77;5.15;;;;;;;4.15;100.00;100389.69;5020144;28;20062;-74
2023/01/10 03:44:42;;;;;;;12.60;4.70;;;;;;;4.09;100.00;100385.84;4995509;28;20038;-74
2023/01/10 03:47:54;;;;;;;15.38;4.65;;;;;;;3.95;100.00;100386.59;4996100;28;20101;-75
2023/01/10 03:50:21;;;;;;;12.13;4.03;;;;;;;3.97;100.00;100407.00;4991028;28;20084;-75
2023/01/10 03:52:48;;;;;;;10.98;3.83;;;;;;;3.97;100.00;100404.31;4996250;28;20528;-74
2023/01/10 03:55:20;;;;;;;14.32;3.45;;;;;;;4.00;100.00;100405.81;5009400;28;20046;-73
2023/01/10 03:57:47;;;;;;;12.32;3.92;;;;;;;4.03;100.00;100408.16;4995390;28;20044;-74
2023/01/10 04:00:15;;;;;;;12.20;3.95;;;;;;;4.06;100.00;100413.19;5003160;28;20130;-74
2023/01/10 04:02:41;;;;;;;13.68;3.35;;;;;;;4.09;100.00;100418.22;4994624;28;20025;-74
2023/01/10 04:05:08;;;;;;;13.80;3.85;;;;;;;4.13;100.00;100416.84;4995298;28;20038;-74
2023/01/10 04:07:34;;;;;;;14.80;3.67;;;;;;;4.21;100.00;100425.91;4995860;28;20482;-74
2023/01/10 04:10:00;;;;;;;14.55;3.42;;;;;;;4.25;100.00;100432.66;4996296;28;20033;-75
2023/01/10 04:12:26;;;;;;;11.20;3.83;;;;;;;4.28;100.00;100441.22;4995582;28;20073;-74
2023/01/10 04:14:52;;;;;;;14.40;4.13;;;;;;;4.30;100.00;100436.47;4995646;28;20038;-75
2023/01/10 04:17:18;;;;;;;8.02;3.72;;;;;;;4.31;100.00;100446.25;4995740;28;20410;-75
2023/01/10 04:19:44;;;;;;;15.15;3.58;;;;;;;4.34;100.00;100452.31;4995476;28;20113;-74
2023/01/10 04:22:11;;;;;;;18.92;3.83;;;;;;;4.32;100.00;100455.19;4995110;28;20030;-74
2023/01/10 04:24:38;;;;;;;16.98;3.80;;;;;;;4.33;100.00;100454.19;4999452;28;20157;-74
2023/01/10 04:27:04;;;;;;;17.33;3.92;;;;;;;4.32;100.00;100455.19;4995558;28;20163;-73
2023/01/10 04:29:30;;;;;;;12.68;3.45;;;;;;;4.32;100.00;100472.22;4995273;28;20468;-74
2023/01/10 04:31:57;;;;;;;8.88;3.05;;;;;;;4.33;100.00;100478.50;4995550;28;20109;-74
2023/01/10 04:34:23;;;;;;;13.50;3.40;;;;;;;4.36;100.00;100478.13;4994689;28;20034;-74
2023/01/10 04:36:49;;;;;;;11.40;3.33;;;;;;;4.38;100.00;100486.06;4995074;28;20041;-74
2023/01/10 04:39:16;;;;;;;11.25;3.35;;;;;;;4.38;100.00;100497.69;4994586;28;20038;-74
2023/01/10 04:41:42;;;;;;;17.05;3.63;;;;;;;4.40;100.00;100498.34;4994815;28;20584;-73
2023/01/10 04:44:08;;;;;;;12.98;3.70;;;;;;;4.47;100.00;100495.78;4994784;28;20042;-73
2023/01/10 04:46:34;;;;;;;15.38;3.90;;;;;;;4.49;100.00;100509.09;4993510;28;20038;-74
2023/01/10 04:49:00;;;;;;;16.23;3.90;;;;;;;4.50;100.00;100503.53;4993205;28;20355;-74
2023/01/10 04:51:27;;;;;;;19.35;4.15;;;;;;;4.51;100.00;100501.63;4995791;28;20027;-74
2023/01/10 04:53:53;;;;;;;16.30;3.83;;;;;;;4.53;100.00;100513.13;5000441;28;20038;-74
2023/01/10 04:56:21;;;;;;;16.75;3.85;;;;;;;4.53;100.00;100513.13;4994993;28;20804;-73
2023/01/10 04:58:48;;;;;;;19.55;3.88;;;;;;;4.53;100.00;100519.38;4994798;28;20437;-73
2023/01/10 05:01:17;;;;;;;19.75;4.00;;;;;;;4.51;100.00;100523.25;4993990;28;20022;-73
2023/01/10 05:03:45;;;;;;;13.98;4.03;;;;;;;4.47;100.00;100534.44;4997893;28;20469;-74
2023/01/10 05:06:11;;;;;;;15.07;3.83;;;;;;;4.48;100.00;100537.97;4992962;28;20176;-73
2023/01/10 05:08:38;;;;;;;12.95;3.53;;;;;;;4.47;100.00;100537.13;5017440;28;20033;-73
2023/01/10 05:11:04;;;;;;;17.45;3.92;;;;;;;4.43;100.00;100537.69;4994664;28;20502;-73
2023/01/10 05:13:30;;;;;;;15.27;3.75;;;;;;;4.35;100.00;100535.88;4993547;28;20045;-74
2023/01/10 05:15:57;;;;;;;14.32;4.28;;;;;;;4.27;100.00;100544.03;4993909;28;20049;-73
2023/01/10 05:18:28;;;;;;;17.07;4.47;;;;;;;4.11;100.00;100540.38;5011376;28;20037;-74
2023/01/10 05:21:00;;;;;;;21.67;4.85;;;;;;;3.95;100.00;100544.00;4998691;28;20122;-74
2023/01/10 05:23:26;;;;;;;15.18;4.50;;;;;;;3.89;100.00;100552.81;4994213;28;20049;-75
2023/01/10 05:25:52;;;;;;;17.30;4.40;;;;;;;3.78;100.00;100553.19;4993024;28;20110;-74
2023/01/10 05:28:18;;;;;;;15.85;4.15;;;;;;;3.73;100.00;100561.81;4993729;28;20402;-73
2023/01/10 05:30:44;;;;;;;13.95;4.20;;;;;;;3.67;100.00;100567.91;4993632;28;20034;-73
2023/01/10 05:33:10;;;;;;;17.00;4.10;;;;;;;3.66;100.00;100577.00;4993251;28;20042;-73
2023/01/10 05:35:37;;;;;;;17.05;4.25;;;;;;;3.63;100.00;100586.31;4998514;28;20172;-74
2023/01/10 05:38:03;;;;;;;16.55;4.10;;;;;;;3.53;100.00;100591.88;4993180;28;20041;-74
2023/01/10 05:40:29;;;;;;;11.98;4.32;;;;;;;3.50;100.00;100569.78;4994102;28;20038;-74
2023/01/10 05:42:55;;;;;;;22.77;4.68;;;;;;;3.54;100.00;100587.31;4993157;28;20129;-73
2023/01/10 05:45:21;;;;;;;12.23;4.55;;;;;;;3.53;100.00;100594.59;4998276;28;20483;-74
2023/01/10 05:47:47;;;;;;;16.80;5.13;;;;;;;3.48;100.00;100594.25;4994176;28;20053;-74
2023/01/10 05:50:14;;;;;;;18.38;5.50;;;;;;;3.48;100.00;100599.66;4994424;28;20125;-73
2023/01/10 05:52:40;;;;;;;18.05;5.03;;;;;;;3.51;100.00;100606.56;4993616;28;20062;-72
2023/01/10 05:55:06;;;;;;;16.15;5.05;;;;;;;3.55;100.00;100616.84;4993325;28;20391;-72
2023/01/10 05:57:32;;;;;;;16.48;4.95;;;;;;;3.63;100.00;100623.22;5009079;28;20050;-73
2023/01/10 05:59:58;;;;;;;17.85;5.18;;;;;;;3.66;100.00;100631.81;4994213;28;20030;-72
2023/01/10 06:02:25;;;;;;;15.00;5.07;;;;;;;3.67;100.00;100632.66;4993574;28;20034;-73
2023/01/10 06:04:54;;;;;;;15.23;5.32;;;;;;;3.63;100.00;100634.00;4999329;28;20057;-73
2023/01/10 06:07:20;;;;;;;15.07;4.72;;;;;;;3.64;100.00;100638.41;5007294;28;20057;-73
2023/01/10 06:09:47;;;;;;;16.55;5.22;;;;;;;3.59;100.00;100649.72;4994026;28;20037;-73
2023/01/10 06:12:13;;;;;;;18.48;5.30;;;;;;;3.66;100.00;100652.56;4993506;28;20034;-73
2023/01/10 06:14:39;;;;;;;23.25;6.65;;;;;;;3.62;100.00;100664.72;5007911;28;20030;-73
2023/01/10 06:17:08;;;;;;;17.60;5.90;;;;;;;3.77;100.00;100665.72;4993921;28;20120;-73
2023/01/10 06:19:35;;;;;;;23.45;5.97;;;;;;;3.81;100.00;100671.59;4993286;28;20438;-73
2023/01/10 06:22:02;;;;;;;15.40;4.82;;;;;;;3.85;100.00;100678.34;4999416;28;20046;-76
2023/01/10 06:24:29;;;;;;;19.80;6.00;;;;;;;3.82;100.00;100676.81;4993490;28;20552;-73
2023/01/10 06:26:55;;;;;;;17.90;5.32;;;;;;;3.83;100.00;100673.09;4993362;28;20105;-74
2023/01/10 06:29:22;;;;;;;17.27;5.32;;;;;;;3.74;100.00;100679.53;4993563;28;20129;-74
2023/01/10 06:31:48;;;;;;;16.73;4.88;;;;;;;3.68;100.00;100688.31;5008091;28;20049;-75
2023/01/10 06:34:14;;;;;;;18.65;4.80;;;;;;;3.58;100.00;100693.88;4993424;28;20096;-75
2023/01/10 06:36:40;;;;;;;17.65;6.10;;;;;;;3.51;100.00;100714.44;4994923;28;20085;-74
2023/01/10 06:39:06;;;;;;;17.27;5.45;;;;;;;3.48;100.00;100704.00;4997267;28;20081;-75
2023/01/10 06:41:32;;;;;;;21.50;5.63;;;;;;;3.43;100.00;100708.06;4996918;28;20057;-75
2023/01/10 06:43:58;;;;;;;17.65;5.18;;;;;;;3.39;100.00;100708.53;4997643;28;20503;-75
2023/01/10 06:46:24;;;;;;;18.77;5.45;;;;;;;3.37;100.00;100710.56;5002390;28;20104;-76
2023/01/10 06:48:50;;;;;;;14.85;5.68;;;;;;;3.35;100.00;100713.44;4994930;28;20501;-74
2023/01/10 06:51:16;;;;;;;16.52;5.15;;;;;;;3.32;100.00;100721.88;5003211;28;20041;-75
2023/01/10 06:53:43;;;;;;;19.33;5.38;;;;;;;3.24;100.00;100724.56;5004045;28;20045;-74
2023/01/10 06:56:09;;;;;;;19.95;6.28;;;;;;;3.20;100.00;100733.97;4997210;28;20408;-75
2023/01/10 06:58:40;;;;;;;16.50;5.38;;;;;;;3.23;100.00;100734.50;4997383;28;20433;-75
2023/01/10 07:01:11;;;;;;;18.55;5.90;;;;;;;3.27;100.00;100726.91;4996059;28;20042;-74
2023/01/10 07:03:39;;;;;;;18.88;6.13;;;;;;;3.34;100.00;100735.19;4996968;28;20038;-75
2023/01/10 07:06:09;;;;;;;;;;;;;;;3.41;100.00;100736.19;4997306;28;20038;-74
2023/01/10 07:08:35;;;;;;;;;;;;;;;3.45;100.00;100733.00;5011376;28;19940;-74
2023/01/10 07:11:02;;;;;;;17.98;5.40;;;;;;;3.47;100.00;100732.84;4994181;28;19943;-74
2023/01/10 07:13:28;;;;;;;16.48;5.15;;;;;;;3.52;100.00;100741.28;5011043;28;20401;-74
2023/01/10 07:16:05;;;;;;;20.88;6.43;;;;;;;3.56;100.00;100747.16;5012177;28;20038;-73
2023/01/10 07:18:33;;;;;;;12.73;5.30;;;;;;;3.60;100.00;100748.53;4996825;28;20042;-73
2023/01/10 07:20:59;;;;;;;22.40;5.60;;;;;;;3.63;100.00;100750.03;5001240;28;20049;-74
2023/01/10 07:23:25;;;;;;;15.98;5.50;;;;;;;3.66;100.00;100747.84;4995324;28;20486;-74
2023/01/10 07:25:51;;;;;;;19.40;5.63;;;;;;;3.65;100.00;100756.97;5003950;28;20058;-74
2023/01/10 07:28:17;;;;;;;13.60;5.07;;;;;;;3.68;100.00;100751.22;4997447;28;20042;-75
2023/01/10 07:30:43;;;;;;;15.90;6.13;;;;;;;3.68;100.00;100758.47;4996362;28;20549;-75
2023/01/10 07:33:09;;;;;;;15.25;4.72;;;;;;;3.67;100.00;100764.88;5010768;28;20045;-74
2023/01/10 07:35:36;;;;;;;15.35;6.03;;;;;;;3.63;100.00;100764.38;4996197;28;20035;-74
2023/01/10 07:38:02;;;;;;;18.05;5.60;;;;;;;3.57;100.00;100767.72;5007485;28;20069;-74
2023/01/10 07:40:28;;;;;;;18.75;5.53;;;;;;;3.52;100.00;100773.66;5003854;28;20034;-73
2023/01/10 07:42:58;;;;;;;16.83;5.63;;;;;;;3.44;100.00;100776.31;5011758;28;20057;-74
2023/01/10 07:45:26;;;;;;;15.27;5.07;;;;;;;3.42;100.00;100783.72;5000501;28;20026;-74
2023/01/10 07:48:03;;;;;;;19.33;6.18;;;;;;;3.41;100.00;100777.50;5009369;28;20730;-74
2023/01/10 07:50:35;;;;;;;20.98;6.05;;;;;;;3.47;100.00;100796.72;5021649;28;20465;-73
2023/01/10 07:53:03;;;;;;;20.85;6.65;;;;;;;3.49;100.00;100792.88;5006645;28;20342;-74
2023/01/10 07:55:29;;;;;;;18.70;5.63;;;;;;;3.54;100.00;100789.66;5013314;28;20058;-73
2023/01/10 07:57:55;;;;;;;19.60;5.97;;;;;;;3.62;100.00;100788.81;5005345;28;20030;-74
2023/01/10 08:00:22;;;;;;;20.55;6.13;;;;;;;3.67;100.00;100800.81;5009964;28;20443;-74
2023/01/10 08:02:51;;;;;;;16.27;6.72;;;;;;;3.73;100.00;100793.91;5016331;28;20088;-74
2023/01/10 08:05:18;;;;;;;17.85;6.97;;;;;;;3.77;100.00;100803.34;5012336;28;20038;-74
2023/01/10 08:07:44;;;;;;;19.20;7.53;;;;;;;3.77;100.00;100797.94;5012447;28;20117;-74
2023/01/10 08:10:10;;;;;;;18.73;7.72;;;;;;;3.79;100.00;100803.16;5005343;28;20030;-74
2023/01/10 08:12:36;;;;;;;19.15;8.00;;;;;;;3.84;100.00;100796.25;5023078;28;20470;-74
2023/01/10 08:15:02;;;;;;;19.50;8.63;;;;;;;3.88;100.00;100789.50;4995618;28;20096;-74
2023/01/10 08:17:31;;;;;;;19.17;9.38;;;;;;;3.92;100.00;100794.56;4996479;28;20041;-75
2023/01/10 08:19:57;;;;;;;20.65;9.07;;;;;;;3.95;100.00;100805.00;5007982;28;20107;-73
2023/01/10 08:22:23;;;;;;;24.63;9.77;;;;;;;3.95;100.00;100805.00;5018874;28;20432;-73
2023/01/10 08:24:49;;;;;;;20.75;8.38;;;;;;;3.95;100.00;100811.28;5001043;28;20036;-74
2023/01/10 08:27:15;;;;;;;20.42;8.40;;;;;;;3.95;100.00;100811.28;5014304;28;20050;-74
2023/01/10 08:29:42;;;;;;;20.65;8.73;;;;;;;3.99;100.00;100814.50;5003823;28;20371;-73
2023/01/10 08:32:08;;;;;;;19.63;9.45;;;;;;;4.13;100.00;100821.88;5008646;28;20029;-73
2023/01/10 08:34:34;;;;;;;21.35;9.45;;;;;;;4.23;100.00;100827.13;5008741;28;20491;-73
2023/01/10 08:37:00;;;;;;;22.80;8.48;;;;;;;4.30;100.00;100836.22;5010157;28;20045;-73
2023/01/10 08:39:29;;;;;;;18.17;8.98;;;;;;;4.32;100.00;100841.47;5014254;28;20025;-73
2023/01/10 08:41:56;;;;;;;23.05;8.45;;;;;;;4.33;100.00;100856.66;5012107;28;20092;-75
2023/01/10 08:44:22;;;;;;;22.60;8.98;;;;;;;4.34;100.00;100847.53;5006308;28;20205;-75
2023/01/10 08:46:48;;;;;;;18.70;9.20;;;;;;;4.38;100.00;100846.16;4995224;28;20525;-75
2023/01/10 08:49:14;;;;;;;21.38;8.73;;;;;;;4.44;100.00;100850.06;5009981;28;21238;-74
2023/01/10 08:51:40;;;;;;;19.38;8.73;;;;;;;4.51;100.00;100858.28;5007065;28;20030;-74
2023/01/10 08:54:07;;;;;;;21.67;8.55;;;;;;;4.57;100.00;100854.94;5020887;28;20056;-74
2023/01/10 08:56:35;;;;;;;21.60;8.57;;;;;;;4.71;100.00;100840.69;5007605;28;20409;-74
2023/01/10 08:59:01;;;;;;;19.02;8.60;;;;;;;4.81;100.00;100831.56;4993333;28;20390;-74
2023/01/10 09:01:27;;;;;;;19.65;8.63;;;;;;;4.89;100.00;100836.91;5007625;28;20040;-74
2023/01/10 09:03:53;;;;;;;22.98;9.43;;;;;;;4.90;100.00;100844.00;4996865;28;20509;-74
2023/01/10 09:06:19;;;;;;;17.60;8.00;;;;;;;4.97;100.00;100842.28;5011422;28;20049;-73
2023/01/10 09:08:45;;;;;;;20.50;8.85;;;;;;;4.99;100.00;100842.94;4995617;28;20069;-74
2023/01/10 09:11:11;;;;;;;19.70;8.70;;;;;;;5.05;100.00;100844.13;4994114;28;20088;-73
2023/01/10 09:13:39;;;;;;;18.83;9.02;;;;;;;5.03;100.00;100852.41;4994655;28;20045;-73
2023/01/10 09:16:05;;;;;;;24.15;10.18;;;;;;;5.00;100.00;100860.88;4993812;28;20196;-73
2023/01/10 09:18:32;;;;;;;21.25;9.82;;;;;;;5.12;100.00;100857.78;5009593;28;20126;-72
2023/01/10 09:20:58;;;;;;;22.90;9.18;;;;;;;5.19;100.00;100856.06;5000154;28;20038;-73
2023/01/10 09:23:25;;;;;;;22.63;8.73;;;;;;;5.31;100.00;100859.22;4991589;28;20233;-73
2023/01/10 09:25:53;;;;;;;20.13;9.40;;;;;;;5.41;100.00;100864.41;4994384;28;20038;-72
2023/01/10 09:28:20;;;;;;;24.02;9.30;;;;;;;5.44;100.00;100864.06;4994817;28;20038;-73
2023/01/10 09:30:47;;;;;;;19.48;9.48;;;;;;;5.49;100.00;100882.47;4993861;28;20092;-72
2023/01/10 09:33:13;;;;;;;18.88;8.48;;;;;;;5.55;100.00;100893.41;4994078;28;20030;-73
2023/01/10 09:35:40;;;;;;;18.50;9.18;;;;;;;5.68;100.00;100889.31;4994162;28;20512;-72
2023/01/10 09:38:13;;;;;;;19.23;8.93;;;;;;;5.62;100.00;100896.25;4998046;28;20482;-73
2023/01/10 09:40:45;;;;;;;23.77;8.50;;;;;;;5.54;100.00;100897.13;4994081;28;20037;-73
2023/01/10 09:43:29;;;;;;;20.85;9.43;;;;;;;5.41;100.00;100895.00;4993979;28;20116;-72
2023/01/10 09:46:11;;;;;;;23.05;8.93;;;;;;;5.48;100.00;100905.97;4994314;28;20546;-72
2023/01/10 09:49:24;;;;;;;16.73;8.57;;;;;;;5.47;100.00;100912.41;5001102;28;20030;-74
2023/01/10 09:51:52;;;;;;;20.17;8.73;;;;;;;5.47;100.00;100915.97;4983048;28;20046;-73
2023/01/10 09:54:24;;;;;;;;;;;;;;;5.43;100.00;100917.31;4994810;28;20489;-72
2023/01/10 09:56:50;;;;;;;17.23;8.32;;;;;;;5.41;100.00;100916.66;4997971;28;19963;-73
2023/01/10 09:59:24;;;;;;;21.55;8.25;;;;;;;5.43;100.00;100916.50;4994155;28;20064;-72
2023/01/10 10:02:05;;;;;;;25.08;8.85;;;;;;;5.40;100.00;100922.25;5000670;28;20137;-73
2023/01/10 10:04:37;;;;;;;24.63;9.10;;;;;;;5.40;100.00;100924.97;4993414;28;20042;-74
2023/01/10 10:07:11;;;;;;;18.58;8.32;;;;;;;5.41;100.00;100910.41;4996726;28;20986;-73
2023/01/10 10:09:37;;;;;;;22.90;8.70;;;;;;;5.43;100.00;100916.50;4995189;28;20035;-72
2023/01/10 10:12:22;;;;;;;23.63;9.75;;;;;;;5.43;100.00;100909.19;4999406;28;20038;-72
2023/01/10 10:15:17;;;;;;;19.50;8.40;;;;;;;5.51;100.00;100919.16;5007313;28;20498;-73
2023/01/10 10:17:56;;;;;;;21.95;8.70;;;;;;;5.57;100.00;100915.75;4993855;28;20070;-72
2023/01/10 10:20:30;;;;;;;21.13;9.40;;;;;;;5.66;100.00;100931.94;5007701;28;20046;-72
2023/01/10 10:23:16;;;;;;;23.55;8.15;;;;;;;5.72;100.00;100910.44;4990911;28;20038;-72
2023/01/10 10:26:03;;;;;;;21.88;9.20;;;;;;;5.87;100.00;100913.22;4992966;28;20389;-72
2023/01/10 10:29:10;;;;;;;22.15;8.38;;;;;;;5.92;100.00;100912.66;5007621;28;20054;-72
2023/01/10 10:31:42;;;;;;;20.23;9.07;;;;;;;6.03;100.00;100916.84;4971529;28;20142;-72
2023/01/10 10:34:37;;;;;;;15.55;7.80;;;;;;;6.08;100.00;100913.59;5012746;28;20042;-73
2023/01/10 10:37:25;;;;;;;14.70;7.97;;;;;;;6.16;100.00;100906.28;4992979;28;20046;-73
2023/01/10 10:40:06;;;;;;;18.23;8.52;;;;;;;6.35;100.00;100903.25;4999658;28;20092;-73
2023/01/10 10:42:40;;;;;;;21.13;8.77;;;;;;;6.59;100.00;100913.84;4997965;28;20049;-73
2023/01/10 10:45:19;;;;;;;20.85;8.88;;;;;;;6.70;100.00;100903.59;4993315;28;20045;-73
2023/01/10 10:47:52;;;;;;;18.40;9.02;;;;;;;6.94;100.00;100915.19;4990964;28;20034;-75
2023/01/10 10:50:33;;;;;;;17.45;8.57;;;;;;;7.44;100.00;100910.88;4993594;28;20042;-75
2023/01/10 10:53:02;;;;;;;18.38;8.68;;;;;;;7.67;100.00;100917.19;4992404;28;20034;-75
2023/01/10 10:55:33;;;;;;;15.77;7.82;;;;;;;7.42;100.00;100917.50;5006611;28;20042;-74
2023/01/10 10:58:01;;;;;;;19.48;8.52;;;;;;;7.72;100.00;100914.78;4993758;28;20092;-75
2023/01/10 11:00:28;;;;;;;20.27;8.52;;;;;;;7.95;98.82;100921.88;5000078;28;20069;-75
2023/01/10 11:03:15;;;;;;;19.03;8.47;;;;;;;7.62;100.00;100921.31;4993659;28;20068;-75
2023/01/10 11:05:45;;;;;;;17.27;8.40;;;;;;;6.99;100.00;100932.63;5008230;28;20340;-73
2023/01/10 11:08:17;;;;;;;14.52;7.53;;;;;;;6.78;100.00;100935.19;5010445;28;20030;-73
2023/01/10 11:10:48;;;;;;;24.73;9.90;;;;;;;6.61;100.00;100933.50;5011140;28;20042;-74
2023/01/10 11:13:14;;;;;;;20.20;8.43;;;;;;;6.38;100.00;100935.38;5011506;28;20025;-74
2023/01/10 11:15:43;;;;;;;20.02;8.80;;;;;;;6.27;100.00;100934.81;5008671;28;20037;-73
2023/01/10 11:18:29;;;;;;;20.40;8.15;;;;;;;6.31;100.00;100948.81;5011353;28;20042;-73
2023/01/10 11:21:14;;;;;;;20.25;8.45;;;;;;;6.30;100.00;100933.59;5006377;28;20034;-74
2023/01/10 11:23:40;;;;;;;16.70;7.55;;;;;;;6.24;100.00;100939.72;5013831;28;20040;-74
2023/01/10 11:26:23;;;;;;;19.38;7.55;;;;;;;6.19;100.00;100937.56;5014047;28;20065;-74
2023/01/10 11:28:52;;;;;;;15.98;7.68;;;;;;;6.11;100.00;100941.19;5011337;28;20201;-74
2023/01/10 11:31:29;;;;;;;18.63;7.32;;;;;;;6.14;100.00;100939.97;5013941;28;20371;-74
2023/01/10 11:33:56;;;;;;;18.45;7.78;;;;;;;6.12;100.00;100950.16;5011651;28;20033;-74
2023/01/10 11:36:22;;;;;;;22.95;7.18;;;;;;;6.07;100.00;100945.25;5009871;28;20034;-75